createdAt,value
2022-12-27T00:00:02.143Z,8.3
2022-12-27T00:01:02.143Z,8.2
2022-12-27T00:02:02.108Z,8.2
2022-12-27T00:03:02.063Z,8.2
2022-12-27T00:04:01.975Z,8.2
2022-12-27T00:05:01.921Z,8.2
2022-12-27T00:06:01.907Z,8.2
2022-12-27T00:07:01.901Z,8.2
2022-12-27T00:08:01.799Z,8.2
2022-12-27T00:09:01.741Z,8.2
2022-12-27T00:10:01.711Z,8.2
2022-12-27T00:11:01.678Z,8.2
2022-12-27T00:12:01.578Z,8.2
2022-12-27T00:13:01.464Z,8.2
2022-12-27T00:14:01.379Z,8.1
2022-12-27T00:15:01.376Z,8.1
2022-12-27T00:16:01.732Z,8.2
2022-12-27T00:17:02.283Z,8.1
2022-12-27T00:18:02.276Z,8.2
2022-12-27T00:19:02.297Z,8.2
2022-12-27T00:20:10.621Z,8.3
2022-12-27T00:21:01.605Z,8.2
2022-12-27T00:22:01.525Z,8.3
2022-12-27T00:23:01.450Z,8.3
2022-12-27T00:24:01.354Z,8.3
2022-12-27T00:25:02.314Z,8.3
2022-12-27T00:26:02.269Z,8.2
2022-12-27T00:27:02.196Z,8.3
2022-12-27T00:28:02.219Z,8.3
2022-12-27T00:29:02.133Z,8.3
2022-12-27T00:30:02.184Z,8.3
2022-12-27T00:31:02.139Z,8.2
2022-12-27T00:32:01.854Z,8.2
2022-12-27T00:33:01.795Z,8.3
2022-12-27T00:34:01.757Z,8.3
2022-12-27T00:35:01.726Z,8.3
2022-12-27T00:36:01.629Z,8.3
2022-12-27T00:37:01.515Z,8.3
2022-12-27T00:38:01.407Z,8.3
2022-12-27T00:39:01.367Z,8.3
2022-12-27T00:40:02.291Z,8.3
2022-12-27T00:41:02.240Z,8.3
2022-12-27T00:42:02.293Z,8.4
2022-12-27T00:43:02.244Z,8.4
2022-12-27T00:44:02.206Z,8.4
2022-12-27T00:45:02.244Z,8.4
2022-12-27T00:46:02.239Z,8.5
2022-12-27T00:47:01.946Z,8.4
2022-12-27T00:48:01.942Z,8.4
2022-12-27T00:49:01.917Z,8.5
2022-12-27T00:50:02.024Z,8.4
2022-12-27T00:51:01.823Z,8.4
2022-12-27T00:52:01.700Z,8.5
2022-12-27T00:53:01.672Z,8.5
2022-12-27T00:54:01.603Z,8.5
2022-12-27T00:55:01.562Z,8.5
2022-12-27T00:56:01.407Z,8.6
2022-12-27T00:57:01.726Z,8.6
2022-12-27T00:58:01.722Z,8.6
2022-12-27T00:59:01.630Z,8.6
2022-12-27T01:00:06.292Z,8.6
2022-12-27T01:01:02.311Z,8.6
2022-12-27T01:02:01.421Z,8.7
2022-12-27T01:03:02.246Z,8.6
2022-12-27T01:04:02.250Z,8.7
2022-12-27T01:05:02.144Z,8.7
2022-12-27T01:06:02.176Z,8.6
2022-12-27T01:07:02.119Z,8.7
2022-12-27T01:08:02.056Z,8.6
2022-12-27T01:09:02.067Z,8.6
2022-12-27T01:10:02.082Z,8.6
2022-12-27T01:11:02.027Z,8.6
2022-12-27T01:12:02.086Z,8.6
2022-12-27T01:13:02.111Z,8.6
2022-12-27T01:14:02.087Z,8.6
2022-12-27T01:15:02.106Z,8.6
2022-12-27T01:16:02.048Z,8.6
2022-12-27T01:17:01.964Z,8.6
2022-12-27T01:18:01.913Z,8.7
2022-12-27T01:19:01.834Z,8.6
2022-12-27T01:20:01.761Z,8.7
2022-12-27T01:21:01.695Z,8.6
2022-12-27T01:22:01.646Z,8.7
2022-12-27T01:23:01.582Z,8.7
2022-12-27T01:24:01.494Z,8.7
2022-12-27T01:25:01.440Z,8.6
2022-12-27T01:26:01.370Z,8.5
2022-12-27T01:27:02.309Z,8.6
2022-12-27T01:28:01.342Z,8.6
2022-12-27T01:29:02.330Z,8.7
2022-12-27T01:30:01.300Z,8.7
2022-12-27T01:31:02.197Z,8.7
2022-12-27T01:32:02.138Z,8.7
2022-12-27T01:33:02.041Z,8.7
2022-12-27T01:34:01.943Z,8.7
2022-12-27T01:35:01.890Z,8.7
2022-12-27T01:36:01.832Z,8.7
2022-12-27T01:37:01.727Z,8.7
2022-12-27T01:38:01.636Z,8.7
2022-12-27T01:39:01.526Z,8.5
2022-12-27T01:40:01.413Z,8.5
2022-12-27T01:41:01.349Z,8.5
2022-12-27T01:42:02.281Z,8.5
2022-12-27T01:43:02.291Z,8.4
2022-12-27T01:44:02.276Z,8.3
2022-12-27T01:45:02.276Z,8.3
2022-12-27T01:46:02.304Z,8.2
2022-12-27T01:47:02.129Z,8.2
2022-12-27T01:48:02.074Z,8.2
2022-12-27T01:49:05.075Z,8.1
2022-12-27T01:50:01.958Z,8.1
2022-12-27T01:51:02.015Z,8.1
2022-12-27T01:52:01.909Z,8.1
2022-12-27T01:53:01.879Z,8
2022-12-27T01:54:01.844Z,8.1
2022-12-27T01:55:01.805Z,8.1
2022-12-27T01:56:01.738Z,8
2022-12-27T01:57:01.691Z,8.1
2022-12-27T01:58:01.614Z,8.1
2022-12-27T01:59:01.547Z,8
2022-12-27T02:00:01.439Z,8.1
2022-12-27T02:01:01.425Z,8.1
2022-12-27T02:02:01.677Z,8
2022-12-27T02:03:01.953Z,8
2022-12-27T02:04:01.924Z,8
2022-12-27T02:05:01.813Z,8
2022-12-27T02:06:01.738Z,8.1
2022-12-27T02:07:01.671Z,8
2022-12-27T02:08:01.602Z,8
2022-12-27T02:09:01.486Z,8
2022-12-27T02:10:01.401Z,8
2022-12-27T02:11:01.370Z,8
2022-12-27T02:12:02.303Z,8
2022-12-27T02:13:01.297Z,8
2022-12-27T02:14:02.285Z,8
2022-12-27T02:15:02.212Z,8
2022-12-27T02:16:02.169Z,8.1
2022-12-27T02:17:01.950Z,8.1
2022-12-27T02:18:01.899Z,8.1
2022-12-27T02:19:01.774Z,8
2022-12-27T02:20:01.740Z,8
2022-12-27T02:21:01.611Z,8
2022-12-27T02:22:01.511Z,8
2022-12-27T02:23:01.414Z,8
2022-12-27T02:24:01.344Z,8.1
2022-12-27T02:25:01.942Z,8
2022-12-27T02:26:01.978Z,8
2022-12-27T02:27:02.043Z,8
2022-12-27T02:28:01.973Z,8
2022-12-27T02:29:01.968Z,8.1
2022-12-27T02:30:01.935Z,8
2022-12-27T02:31:01.909Z,7.9
2022-12-27T02:32:01.720Z,8
2022-12-27T02:33:01.597Z,7.9
2022-12-27T02:34:01.544Z,8
2022-12-27T02:35:01.477Z,8
2022-12-27T02:36:01.385Z,7.9
2022-12-27T02:37:01.293Z,7.9
2022-12-27T02:38:02.250Z,8
2022-12-27T02:39:02.326Z,8
2022-12-27T02:40:02.213Z,7.9
2022-12-27T02:41:02.235Z,7.9
2022-12-27T02:42:02.253Z,7.9
2022-12-27T02:43:02.251Z,7.9
2022-12-27T02:44:02.260Z,7.9
2022-12-27T02:45:02.312Z,7.9
2022-12-27T02:46:02.270Z,8
2022-12-27T02:47:02.193Z,7.9
2022-12-27T02:48:02.144Z,8
2022-12-27T02:49:02.108Z,7.9
2022-12-27T02:50:02.152Z,7.9
2022-12-27T02:51:02.270Z,8
2022-12-27T02:52:02.194Z,8
2022-12-27T02:53:02.158Z,7.9
2022-12-27T02:54:02.181Z,7.9
2022-12-27T02:55:02.134Z,8
2022-12-27T02:56:02.052Z,8
2022-12-27T02:57:01.973Z,8
2022-12-27T02:58:01.875Z,8
2022-12-27T02:59:01.733Z,8
2022-12-27T03:00:01.691Z,8
2022-12-27T03:01:01.656Z,8
2022-12-27T03:02:01.626Z,8
2022-12-27T03:03:01.666Z,8.1
2022-12-27T03:04:01.586Z,8
2022-12-27T03:05:01.477Z,8.1
2022-12-27T03:06:01.396Z,8.1
2022-12-27T03:07:01.321Z,8.1
2022-12-27T03:08:02.266Z,8.2
2022-12-27T03:09:02.198Z,8.2
2022-12-27T03:10:02.268Z,8.3
2022-12-27T03:11:02.207Z,8.1
2022-12-27T03:12:02.156Z,8.2
2022-12-27T03:13:02.104Z,8.2
2022-12-27T03:14:02.067Z,8.2
2022-12-27T03:15:01.986Z,8
2022-12-27T03:16:01.939Z,8
2022-12-27T03:17:01.926Z,8
2022-12-27T03:18:01.963Z,8.1
2022-12-27T03:19:01.992Z,8.1
2022-12-27T03:20:01.918Z,8.1
2022-12-27T03:21:01.869Z,8.1
2022-12-27T03:22:01.887Z,8.1
2022-12-27T03:23:01.855Z,8
2022-12-27T03:24:01.774Z,8
2022-12-27T03:25:01.727Z,8.1
2022-12-27T03:26:01.600Z,7.8
2022-12-27T03:27:01.564Z,7.9
2022-12-27T03:28:01.432Z,7.9
2022-12-27T03:29:01.353Z,7.9
2022-12-27T03:30:02.349Z,8
2022-12-27T03:31:01.362Z,7.9
2022-12-27T03:32:02.191Z,7.8
2022-12-27T03:33:02.257Z,7.9
2022-12-27T03:34:02.181Z,7.9
2022-12-27T03:35:02.178Z,7.8
2022-12-27T03:36:02.216Z,7.8
2022-12-27T03:37:01.363Z,7.7
2022-12-27T03:38:01.339Z,7.8
2022-12-27T03:39:02.296Z,7.8
2022-12-27T03:40:02.325Z,7.6
2022-12-27T03:41:01.361Z,7.6
2022-12-27T03:42:02.308Z,7.5
2022-12-27T03:43:01.342Z,7.6
2022-12-27T03:44:02.261Z,7.4
2022-12-27T03:45:02.321Z,7.5
2022-12-27T03:46:01.365Z,7.6
2022-12-27T03:47:02.162Z,7.5
2022-12-27T03:48:02.102Z,7.5
2022-12-27T03:49:02.072Z,7.4
2022-12-27T03:50:02.067Z,7.5
2022-12-27T03:51:02.038Z,7.4
2022-12-27T03:52:01.996Z,7.3
2022-12-27T03:53:01.909Z,7.4
2022-12-27T03:54:01.855Z,7.3
2022-12-27T03:55:01.799Z,7
2022-12-27T03:56:01.659Z,7
2022-12-27T03:57:01.599Z,7.1
2022-12-27T03:58:01.515Z,7.1
2022-12-27T03:59:01.848Z,7.1
2022-12-27T04:00:01.738Z,7.1
2022-12-27T04:01:01.926Z,7.1
2022-12-27T04:02:01.670Z,7.1
2022-12-27T04:03:01.752Z,7.1
2022-12-27T04:04:01.307Z,7.1
2022-12-27T04:05:02.286Z,7.1
2022-12-27T04:06:02.215Z,7
2022-12-27T04:07:02.140Z,7
2022-12-27T04:08:02.061Z,7
2022-12-27T04:09:02.007Z,7.1
2022-12-27T04:10:01.958Z,7
2022-12-27T04:11:01.897Z,7
2022-12-27T04:12:01.855Z,7
2022-12-27T04:13:01.821Z,6.9
2022-12-27T04:14:01.772Z,7
2022-12-27T04:15:01.741Z,6.9
2022-12-27T04:16:01.705Z,6.8
2022-12-27T04:17:01.510Z,6.8
2022-12-27T04:18:01.428Z,6.8
2022-12-27T04:19:01.339Z,6.8
2022-12-27T04:20:02.259Z,6.7
2022-12-27T04:21:02.253Z,6.7
2022-12-27T04:22:02.241Z,6.7
2022-12-27T04:23:02.218Z,6.7
2022-12-27T04:24:02.249Z,6.5
2022-12-27T04:25:02.279Z,6.4
2022-12-27T04:26:02.302Z,6.5
2022-12-27T04:27:01.299Z,6.5
2022-12-27T04:28:02.253Z,6.6
2022-12-27T04:29:02.199Z,6.4
2022-12-27T04:30:02.147Z,6.4
2022-12-27T04:31:02.121Z,6.3
2022-12-27T04:32:02.043Z,6.4
2022-12-27T04:33:02.005Z,6.3
2022-12-27T04:34:01.897Z,6.3
2022-12-27T04:35:01.808Z,6.4
2022-12-27T04:36:06.089Z,6.5
2022-12-27T04:37:01.371Z,6.4
2022-12-27T04:38:01.318Z,6.4
2022-12-27T04:39:02.275Z,6.4
2022-12-27T04:40:02.220Z,6.4
2022-12-27T04:41:02.152Z,6.4
2022-12-27T04:42:02.207Z,6.4
2022-12-27T04:43:02.131Z,6.1
2022-12-27T04:44:02.088Z,6.1
2022-12-27T04:45:02.036Z,6.1
2022-12-27T04:46:02.229Z,6.2
2022-12-27T04:47:01.764Z,6.2
2022-12-27T04:48:01.710Z,6.2
2022-12-27T04:49:01.588Z,6.1
2022-12-27T04:50:01.522Z,6.2
2022-12-27T04:51:01.567Z,6.2
2022-12-27T04:52:01.585Z,6.2
2022-12-27T04:53:01.394Z,6.2
2022-12-27T04:54:01.337Z,6.3
2022-12-27T04:55:02.299Z,6.1
2022-12-27T04:56:02.266Z,6.1
2022-12-27T04:57:02.222Z,6.2
2022-12-27T04:58:02.140Z,6.2
2022-12-27T04:59:02.105Z,6.1
2022-12-27T05:00:02.083Z,6
2022-12-27T05:01:02.028Z,6
2022-12-27T05:02:01.924Z,6
2022-12-27T05:03:02.221Z,6.1
2022-12-27T05:04:02.311Z,6
2022-12-27T05:05:02.273Z,6.1
2022-12-27T05:06:02.284Z,6
2022-12-27T05:07:01.314Z,6
2022-12-27T05:08:02.296Z,6
2022-12-27T05:09:01.414Z,6
2022-12-27T05:10:01.381Z,6
2022-12-27T05:11:02.299Z,5.9
2022-12-27T05:12:01.356Z,6
2022-12-27T05:13:02.238Z,6
2022-12-27T05:14:02.259Z,6
2022-12-27T05:15:02.173Z,6
2022-12-27T05:16:02.174Z,5.9
2022-12-27T05:17:02.049Z,6
2022-12-27T05:18:02.038Z,6
2022-12-27T05:19:02.033Z,5.9
2022-12-27T05:20:01.958Z,6
2022-12-27T05:21:01.866Z,6
2022-12-27T05:22:01.823Z,6
2022-12-27T05:23:02.098Z,5.9
2022-12-27T05:24:05.547Z,5.9
2022-12-27T05:25:01.714Z,5.9
2022-12-27T05:26:01.668Z,5.8
2022-12-27T05:27:02.195Z,5.9
2022-12-27T05:28:02.242Z,5.9
2022-12-27T05:29:02.213Z,5.9
2022-12-27T05:30:02.203Z,5.8
2022-12-27T05:31:02.255Z,5.8
2022-12-27T05:32:01.791Z,5.7
2022-12-27T05:33:01.678Z,5.7
2022-12-27T05:34:01.632Z,5.7
2022-12-27T05:35:01.581Z,5.7
2022-12-27T05:36:01.483Z,5.6
2022-12-27T05:37:01.397Z,5.6
2022-12-27T05:38:01.318Z,5.6
2022-12-27T05:39:02.321Z,5.6
2022-12-27T05:40:02.250Z,5.5
2022-12-27T05:41:02.186Z,5.5
2022-12-27T05:42:02.131Z,5.5
2022-12-27T05:43:02.131Z,5.5
2022-12-27T05:44:07.036Z,5.4
2022-12-27T05:45:01.437Z,5.5
2022-12-27T05:46:01.366Z,5.5
2022-12-27T05:47:02.254Z,5.4
2022-12-27T05:48:02.173Z,5.4
2022-12-27T05:49:02.185Z,5.4
2022-12-27T05:50:02.109Z,5.3
2022-12-27T05:51:01.909Z,5.3
2022-12-27T05:52:01.863Z,5.3
2022-12-27T05:53:01.815Z,5.2
2022-12-27T05:54:01.747Z,5.2
2022-12-27T05:55:01.713Z,5.2
2022-12-27T05:56:01.628Z,5.3
2022-12-27T05:57:01.506Z,5.3
2022-12-27T05:58:01.421Z,5.2
2022-12-27T05:59:01.381Z,5.2
2022-12-27T06:00:02.334Z,5.3
2022-12-27T06:01:02.211Z,5.3
2022-12-27T06:02:02.284Z,5.3
2022-12-27T06:03:01.643Z,5.3
2022-12-27T06:04:01.726Z,5.3
2022-12-27T06:05:02.153Z,5.2
2022-12-27T06:06:02.096Z,5.1
2022-12-27T06:07:02.056Z,5.1
2022-12-27T06:08:01.992Z,5.1
2022-12-27T06:09:01.938Z,5.2
2022-12-27T06:10:01.862Z,5.2
2022-12-27T06:11:01.837Z,5.1
2022-12-27T06:12:01.781Z,5.1
2022-12-27T06:13:01.709Z,5.1
2022-12-27T06:14:01.659Z,5.2
2022-12-27T06:15:01.645Z,5.1
2022-12-27T06:16:01.565Z,5.2
2022-12-27T06:17:02.290Z,5.2
2022-12-27T06:18:02.260Z,5.2
2022-12-27T06:19:02.214Z,5.2
2022-12-27T06:20:02.217Z,5.3
2022-12-27T06:21:02.105Z,5.2
2022-12-27T06:22:02.005Z,5.1
2022-12-27T06:23:01.915Z,5.1
2022-12-27T06:24:02.049Z,5.1
2022-12-27T06:25:02.007Z,5.1
2022-12-27T06:26:01.915Z,5.1
2022-12-27T06:27:01.808Z,5.1
2022-12-27T06:28:01.699Z,5
2022-12-27T06:29:01.605Z,5
2022-12-27T06:30:01.535Z,5
2022-12-27T06:31:01.421Z,5
2022-12-27T06:32:02.292Z,5
2022-12-27T06:33:02.218Z,5
2022-12-27T06:34:02.217Z,4.9
2022-12-27T06:35:02.211Z,4.9
2022-12-27T06:36:02.106Z,4.9
2022-12-27T06:37:02.004Z,5
2022-12-27T06:38:01.938Z,5
2022-12-27T06:39:01.897Z,4.8
2022-12-27T06:40:01.795Z,4.9
2022-12-27T06:41:01.714Z,4.8
2022-12-27T06:42:01.673Z,4.7
2022-12-27T06:43:01.607Z,4.7
2022-12-27T06:44:02.008Z,4.8
2022-12-27T06:45:01.938Z,4.8
2022-12-27T06:46:01.898Z,4.9
2022-12-27T06:47:01.956Z,4.7
2022-12-27T06:48:01.902Z,4.8
2022-12-27T06:49:01.921Z,4.8
2022-12-27T06:50:01.833Z,4.8
2022-12-27T06:51:01.859Z,4.7
2022-12-27T06:52:01.832Z,4.8
2022-12-27T06:53:01.713Z,4.8
2022-12-27T06:54:01.669Z,4.8
2022-12-27T06:55:01.621Z,4.8
2022-12-27T06:56:01.547Z,4.8
2022-12-27T06:57:01.437Z,4.8
2022-12-27T06:58:01.403Z,4.6
2022-12-27T06:59:01.339Z,4.6
2022-12-27T07:00:02.285Z,4.7
2022-12-27T07:01:02.244Z,4.6
2022-12-27T07:02:02.060Z,4.6
2022-12-27T07:03:01.372Z,4.7
2022-12-27T07:04:02.287Z,4.7
2022-12-27T07:05:02.212Z,4.7
2022-12-27T07:06:02.148Z,4.6
2022-12-27T07:07:02.094Z,4.7
2022-12-27T07:08:02.005Z,4.5
2022-12-27T07:09:01.887Z,4.5
2022-12-27T07:10:01.811Z,4.6
2022-12-27T07:11:01.681Z,4.6
2022-12-27T07:12:01.630Z,4.6
2022-12-27T07:13:01.490Z,4.6
2022-12-27T07:14:01.459Z,4.6
2022-12-27T07:15:01.380Z,4.6
2022-12-27T07:16:01.338Z,4.7
2022-12-27T07:17:01.319Z,4.6
2022-12-27T07:18:01.364Z,4.6
2022-12-27T07:19:02.290Z,4.5
2022-12-27T07:20:01.346Z,4.5
2022-12-27T07:21:01.357Z,4.5
2022-12-27T07:22:01.318Z,4.6
2022-12-27T07:23:02.323Z,4.6
2022-12-27T07:24:02.262Z,4.7
2022-12-27T07:25:01.878Z,4.6
2022-12-27T07:26:01.817Z,4.7
2022-12-27T07:27:01.781Z,4.8
2022-12-27T07:28:01.677Z,4.6
2022-12-27T07:29:01.575Z,4.7
2022-12-27T07:30:01.585Z,4.7
2022-12-27T07:31:01.419Z,4.8
2022-12-27T07:32:01.390Z,4.8
2022-12-27T07:33:01.336Z,4.8
2022-12-27T07:34:01.353Z,5
2022-12-27T07:35:01.391Z,4.8
2022-12-27T07:36:01.372Z,4.6
2022-12-27T07:37:01.360Z,4.6
2022-12-27T07:38:01.335Z,4.6
2022-12-27T07:39:02.293Z,4.6
2022-12-27T07:40:02.249Z,4.7
2022-12-27T07:41:02.172Z,4.7
2022-12-27T07:42:06.367Z,4.7
2022-12-27T07:43:01.386Z,4.7
2022-12-27T07:44:01.345Z,4.6
2022-12-27T07:45:02.330Z,4.5
2022-12-27T07:46:02.287Z,4.5
2022-12-27T07:47:02.239Z,4.5
2022-12-27T07:48:02.204Z,4.6
2022-12-27T07:49:02.127Z,4.7
2022-12-27T07:50:02.079Z,4.6
2022-12-27T07:51:02.244Z,4.7
2022-12-27T07:52:02.198Z,4.7
2022-12-27T07:53:02.097Z,4.5
2022-12-27T07:54:02.003Z,4.6
2022-12-27T07:55:01.958Z,4.6
2022-12-27T07:56:01.849Z,4.6
2022-12-27T07:57:01.726Z,4.7
2022-12-27T07:58:01.693Z,4.6
2022-12-27T07:59:01.618Z,4.7
2022-12-27T08:00:01.556Z,4.6
2022-12-27T08:01:01.949Z,4.6
2022-12-27T08:02:01.594Z,4.7
2022-12-27T08:03:01.887Z,4.6
2022-12-27T08:04:01.794Z,4.6
2022-12-27T08:05:01.723Z,4.5
2022-12-27T08:06:01.617Z,4.6
2022-12-27T08:07:01.566Z,4.5
2022-12-27T08:08:01.501Z,4.5
2022-12-27T08:09:01.388Z,4.6
2022-12-27T08:10:01.295Z,4.4
2022-12-27T08:11:05.421Z,4.5
2022-12-27T08:12:01.746Z,4.5
2022-12-27T08:13:02.261Z,4.8
2022-12-27T08:14:02.158Z,4.8
2022-12-27T08:15:02.121Z,4.8
2022-12-27T08:16:02.072Z,4.7
2022-12-27T08:17:02.084Z,4.7
2022-12-27T08:18:02.006Z,5
2022-12-27T08:19:06.497Z,5.1
2022-12-27T08:20:01.391Z,5.2
2022-12-27T08:21:01.357Z,5.3
2022-12-27T08:22:02.291Z,5.3
2022-12-27T08:23:02.269Z,5.3
2022-12-27T08:24:02.193Z,5.3
2022-12-27T08:25:02.139Z,5.5
2022-12-27T08:26:02.057Z,5.6
2022-12-27T08:27:02.011Z,5.6
2022-12-27T08:28:01.958Z,5.6
2022-12-27T08:29:01.897Z,5.4
2022-12-27T08:30:01.851Z,5.4
2022-12-27T08:31:01.784Z,5.2
2022-12-27T08:32:01.756Z,5.3
2022-12-27T08:33:01.642Z,5.4
2022-12-27T08:34:01.531Z,5.3
2022-12-27T08:35:24.907Z,5
2022-12-27T08:36:04.697Z,5
2022-12-27T08:37:01.867Z,5
2022-12-27T08:38:01.803Z,5.2
2022-12-27T08:39:01.744Z,5.2
2022-12-27T08:40:03.010Z,5.2
2022-12-27T08:41:02.146Z,5.2
2022-12-27T08:42:02.084Z,5.2
2022-12-27T08:43:02.036Z,5
2022-12-27T08:44:01.950Z,4.8
2022-12-27T08:45:01.915Z,5
2022-12-27T08:46:01.837Z,5.1
2022-12-27T08:47:01.467Z,5.1
2022-12-27T08:48:01.459Z,5
2022-12-27T08:49:01.341Z,4.8
2022-12-27T08:50:02.276Z,4.9
2022-12-27T08:51:04.869Z,4.9
2022-12-27T08:52:01.690Z,5
2022-12-27T08:53:01.623Z,5.1
2022-12-27T08:54:01.590Z,5.2
2022-12-27T08:55:01.499Z,5.2
2022-12-27T08:56:01.403Z,5.2
2022-12-27T08:57:01.337Z,5
2022-12-27T08:58:02.326Z,5.2
2022-12-27T08:59:02.235Z,5.2
2022-12-27T09:00:02.160Z,5.2
2022-12-27T09:01:02.110Z,5.3
2022-12-27T09:02:02.051Z,5.1
2022-12-27T09:03:01.489Z,5.1
2022-12-27T09:04:02.282Z,5.3
2022-12-27T09:05:02.238Z,5.5
2022-12-27T09:06:02.168Z,5.5
2022-12-27T09:07:02.076Z,5.4
2022-12-27T09:08:02.027Z,5.2
2022-12-27T09:09:01.936Z,5.5
2022-12-27T09:10:01.885Z,5.6
2022-12-27T09:11:01.804Z,5.5
2022-12-27T09:12:03.991Z,5.7
2022-12-27T09:13:02.002Z,5.7
2022-12-27T09:14:01.955Z,5.8
2022-12-27T09:15:01.879Z,6
2022-12-27T09:16:01.828Z,6.1
2022-12-27T09:17:01.836Z,6
2022-12-27T09:18:01.849Z,5.9
2022-12-27T09:19:01.636Z,6.3
2022-12-27T09:20:01.586Z,6.1
2022-12-27T09:21:01.480Z,6
2022-12-27T09:22:01.376Z,6.5
2022-12-27T09:23:01.361Z,6.5
2022-12-27T09:24:02.302Z,6.1
2022-12-27T09:25:02.264Z,6.3
2022-12-27T09:26:02.209Z,6.3
2022-12-27T09:27:02.153Z,6.1
2022-12-27T09:28:02.096Z,5.8
2022-12-27T09:29:02.025Z,5.9
2022-12-27T09:30:01.967Z,6.3
2022-12-27T09:31:01.910Z,6.4
2022-12-27T09:32:02.074Z,6
2022-12-27T09:33:02.001Z,5.8
2022-12-27T09:34:01.910Z,5.7
2022-12-27T09:35:01.910Z,6
2022-12-27T09:36:01.872Z,6.1
2022-12-27T09:37:01.767Z,5.9
2022-12-27T09:38:01.654Z,6.2
2022-12-27T09:39:01.562Z,6.2
2022-12-27T09:40:01.499Z,6.1
2022-12-27T09:41:01.431Z,6.6
2022-12-27T09:43:12.787Z,6.7
2022-12-27T09:44:02.164Z,6.6
2022-12-27T09:45:02.096Z,6.8
2022-12-27T09:46:02.051Z,6.4
2022-12-27T09:47:01.983Z,6.4
2022-12-27T09:48:01.884Z,6.9
2022-12-27T09:49:01.865Z,6.9
2022-12-27T09:50:01.795Z,6.9
2022-12-27T09:51:01.667Z,6.9
2022-12-27T09:52:01.615Z,6.8
2022-12-27T09:53:01.560Z,7
2022-12-27T09:54:01.508Z,7.1
2022-12-27T09:55:04.980Z,7.1
2022-12-27T09:56:01.402Z,6.8
2022-12-27T09:57:19.237Z,7.4
2022-12-27T09:58:01.352Z,7.6
2022-12-27T09:59:02.120Z,7.7
2022-12-27T10:00:01.354Z,7.7
2022-12-27T10:01:01.339Z,7.6
2022-12-27T10:02:01.998Z,7.1
2022-12-27T10:03:02.127Z,7.6
2022-12-27T10:04:02.087Z,7.7
2022-12-27T10:05:21.491Z,7.6
2022-12-27T10:06:02.148Z,7.7
2022-12-27T10:07:02.197Z,7.3
2022-12-27T10:08:02.146Z,7.8
2022-12-27T10:09:02.065Z,7.8
2022-12-27T10:10:02.000Z,8
2022-12-27T10:11:01.911Z,7.9
2022-12-27T10:12:01.846Z,7.4
2022-12-27T10:13:01.751Z,8
2022-12-27T10:14:01.647Z,7.9
2022-12-27T10:15:02.126Z,8
2022-12-27T10:16:02.105Z,7.8
2022-12-27T10:17:02.159Z,8.2
2022-12-27T10:18:02.111Z,8
2022-12-27T10:19:02.057Z,7.6
2022-12-27T10:20:02.130Z,8.2
2022-12-27T10:21:01.988Z,7.7
2022-12-27T10:22:01.977Z,8.3
2022-12-27T10:23:06.118Z,8.4
2022-12-27T10:24:01.425Z,8.2
2022-12-27T10:25:01.370Z,8.2
2022-12-27T10:26:01.347Z,8.1
2022-12-27T10:27:01.343Z,7.9
2022-12-27T10:28:02.292Z,8.1
2022-12-27T10:29:02.309Z,8.1
2022-12-27T10:30:02.329Z,8.5
2022-12-27T10:31:02.281Z,8.2
2022-12-27T10:32:01.443Z,8.3
2022-12-27T10:33:01.351Z,8.3
2022-12-27T10:34:03.964Z,8.5
2022-12-27T10:35:01.429Z,8.3
2022-12-27T10:36:02.197Z,8.9
2022-12-27T10:37:02.201Z,8.7
2022-12-27T10:38:02.206Z,8.9
2022-12-27T10:39:02.245Z,8.7
2022-12-27T10:40:02.273Z,9
2022-12-27T10:41:02.284Z,8.5
2022-12-27T10:42:02.152Z,8.6
2022-12-27T10:43:02.096Z,8.9
2022-12-27T10:44:02.019Z,8.4
2022-12-27T10:45:01.980Z,8.4
2022-12-27T10:46:01.959Z,7.9
2022-12-27T10:47:02.032Z,8.6
2022-12-27T10:48:01.906Z,7.8
2022-12-27T10:49:21.204Z,7.7
2022-12-27T10:50:02.031Z,7.7
2022-12-27T10:51:01.971Z,8.1
2022-12-27T10:52:01.968Z,8
2022-12-27T10:53:01.867Z,8.3
2022-12-27T10:54:01.815Z,8.1
2022-12-27T10:55:01.714Z,7.9
2022-12-27T10:56:01.643Z,7.4
2022-12-27T10:57:01.526Z,7.1
2022-12-27T10:58:01.426Z,7.1
2022-12-27T10:59:01.353Z,6.9
2022-12-27T11:00:02.337Z,6.8
2022-12-27T11:01:02.287Z,6.8
2022-12-27T11:02:02.479Z,6.7
2022-12-27T11:03:01.860Z,6.6
2022-12-27T11:04:02.562Z,6.5
2022-12-27T11:05:01.372Z,6.5
2022-12-27T11:06:01.361Z,6.5
2022-12-27T11:07:01.338Z,6.7
2022-12-27T11:08:02.293Z,6.4
2022-12-27T11:09:02.288Z,6.5
2022-12-27T11:10:02.244Z,6.5
2022-12-27T11:11:02.205Z,6.4
2022-12-27T11:12:02.169Z,6.3
2022-12-27T11:13:02.029Z,6.5
2022-12-27T11:14:01.960Z,6.4
2022-12-27T11:15:01.925Z,6.3
2022-12-27T11:16:01.909Z,6.6
2022-12-27T11:17:01.834Z,6.6
2022-12-27T11:18:01.770Z,7
2022-12-27T11:19:01.720Z,7.2
2022-12-27T11:20:01.610Z,7.4
2022-12-27T11:21:01.571Z,7.6
2022-12-27T11:22:01.452Z,7.7
2022-12-27T11:23:01.386Z,7.4
2022-12-27T11:24:01.382Z,7.4
2022-12-27T11:25:02.308Z,7.5
2022-12-27T11:26:02.239Z,7.3
2022-12-27T11:27:02.207Z,7.5
2022-12-27T11:28:02.141Z,7.4
2022-12-27T11:29:02.066Z,7.5
2022-12-27T11:30:02.060Z,7.3
2022-12-27T11:31:01.943Z,6.8
2022-12-27T11:32:02.153Z,6.7
2022-12-27T11:33:02.083Z,6.6
2022-12-27T11:34:02.017Z,6.8
2022-12-27T11:35:01.975Z,6.5
2022-12-27T11:36:01.890Z,6.9
2022-12-27T11:37:01.849Z,6.5
2022-12-27T11:38:01.715Z,6.6
2022-12-27T11:39:01.693Z,6.8
2022-12-27T11:40:01.656Z,6.8
2022-12-27T11:41:01.665Z,6.8
2022-12-27T11:42:01.550Z,6.7
2022-12-27T11:43:01.444Z,6.8
2022-12-27T11:44:01.375Z,6.7
2022-12-27T11:45:01.350Z,6.7
2022-12-27T11:46:01.348Z,6.6
2022-12-27T11:47:02.218Z,6.8
2022-12-27T11:48:02.183Z,6.8
2022-12-27T11:49:02.068Z,7
2022-12-27T11:50:01.968Z,6.9
2022-12-27T11:51:01.967Z,6.8
2022-12-27T11:52:01.915Z,6.8
2022-12-27T11:53:01.862Z,6.8
2022-12-27T11:54:01.753Z,6.6
2022-12-27T11:55:01.651Z,6.5
2022-12-27T11:56:01.571Z,6.8
2022-12-27T11:57:01.435Z,7
2022-12-27T11:58:01.361Z,6.9
2022-12-27T11:59:02.290Z,6.9
2022-12-27T12:00:02.253Z,6.8
2022-12-27T12:01:05.577Z,6.8
2022-12-27T12:02:01.636Z,6.5
2022-12-27T12:03:02.057Z,6.3
2022-12-27T12:04:02.234Z,6.3
2022-12-27T12:05:02.193Z,6.2
2022-12-27T12:06:01.375Z,6.3
2022-12-27T12:07:01.310Z,6.2
2022-12-27T12:08:02.315Z,6.2
2022-12-27T12:09:01.660Z,6.3
2022-12-27T12:10:01.543Z,6.2
2022-12-27T12:11:01.452Z,6.1
2022-12-27T12:12:01.416Z,6.4
2022-12-27T12:13:01.332Z,6.2
2022-12-27T12:14:02.332Z,6.3
2022-12-27T12:15:02.252Z,6.3
2022-12-27T12:16:02.233Z,6.1
2022-12-27T12:17:02.162Z,5.9
2022-12-27T12:18:02.101Z,6
2022-12-27T12:19:02.047Z,6.1
2022-12-27T12:20:02.008Z,6.2
2022-12-27T12:21:01.941Z,6.2
2022-12-27T12:22:01.900Z,6.3
2022-12-27T12:23:01.840Z,6.2
2022-12-27T12:24:01.779Z,6.3
2022-12-27T12:25:02.185Z,6.4
2022-12-27T12:26:02.127Z,6.5
2022-12-27T12:27:02.099Z,6.2
2022-12-27T12:28:02.045Z,6.1
2022-12-27T12:29:01.967Z,6.2
2022-12-27T12:30:01.893Z,6.3
2022-12-27T12:31:01.753Z,6.5
2022-12-27T12:32:01.544Z,6.2
2022-12-27T12:33:01.437Z,6.4
2022-12-27T12:34:01.373Z,6.2
2022-12-27T12:35:01.293Z,6.2
2022-12-27T12:36:02.268Z,6.2
2022-12-27T12:37:02.215Z,6.1
2022-12-27T12:38:02.139Z,6.1
2022-12-27T12:39:02.198Z,5.9
2022-12-27T12:40:02.207Z,6.1
2022-12-27T12:41:02.094Z,6
2022-12-27T12:42:02.029Z,6
2022-12-27T12:43:01.960Z,6.1
2022-12-27T12:44:01.954Z,6.3
2022-12-27T12:45:01.837Z,6.1
2022-12-27T12:46:01.753Z,6.3
2022-12-27T12:47:01.685Z,6.3
2022-12-27T12:48:01.632Z,6
2022-12-27T12:49:01.524Z,6.1
2022-12-27T12:50:01.503Z,6
2022-12-27T12:51:01.467Z,6.1
2022-12-27T12:52:01.380Z,6.2
2022-12-27T12:53:01.340Z,6.3
2022-12-27T12:54:02.260Z,6.2
2022-12-27T12:55:02.209Z,6.1
2022-12-27T12:56:02.187Z,6.1
2022-12-27T12:57:02.095Z,6.3
2022-12-27T12:58:02.017Z,6.2
2022-12-27T12:59:01.957Z,6.3
2022-12-27T13:00:01.937Z,6.6
2022-12-27T13:01:01.932Z,6.7
2022-12-27T13:02:01.707Z,6.7
2022-12-27T13:03:02.174Z,6.5
2022-12-27T13:04:01.461Z,6.2
2022-12-27T13:05:01.343Z,6.1
2022-12-27T13:06:02.320Z,6.1
2022-12-27T13:07:02.230Z,6.1
2022-12-27T13:08:02.182Z,6.1
2022-12-27T13:09:02.135Z,6.1
2022-12-27T13:10:02.069Z,6.2
2022-12-27T13:11:02.024Z,6.3
2022-12-27T13:12:01.938Z,6.3
2022-12-27T13:13:02.062Z,6.3
2022-12-27T13:14:01.942Z,6.3
2022-12-27T13:15:01.875Z,6.1
2022-12-27T13:16:01.832Z,5.9
2022-12-27T13:17:01.626Z,5.9
2022-12-27T13:18:01.528Z,6.1
2022-12-27T13:19:01.467Z,5.9
2022-12-27T13:20:01.404Z,5.7
2022-12-27T13:21:01.352Z,5.8
2022-12-27T13:22:02.280Z,5.9
2022-12-27T13:23:02.217Z,6
2022-12-27T13:24:02.179Z,5.9
2022-12-27T13:25:02.264Z,5.9
2022-12-27T13:26:02.217Z,5.9
2022-12-27T13:27:02.143Z,5.9
2022-12-27T13:28:02.100Z,5.8
2022-12-27T13:29:02.051Z,5.9
2022-12-27T13:30:06.574Z,5.7
2022-12-27T13:31:01.458Z,5.8
2022-12-27T13:32:01.944Z,5.9
2022-12-27T13:33:01.887Z,5.9
2022-12-27T13:34:01.841Z,6
2022-12-27T13:35:01.731Z,5.8
2022-12-27T13:36:01.727Z,5.9
2022-12-27T13:37:01.685Z,5.9
2022-12-27T13:38:01.573Z,6
2022-12-27T13:39:01.524Z,5.8
2022-12-27T13:40:01.421Z,5.8
2022-12-27T13:41:01.410Z,5.9
2022-12-27T13:42:01.359Z,6
2022-12-27T13:43:01.343Z,5.9
2022-12-27T13:44:02.306Z,6.1
2022-12-27T13:45:02.260Z,6.2
2022-12-27T13:46:02.150Z,6.4
2022-12-27T13:47:02.224Z,6.5
2022-12-27T13:48:02.184Z,6.9
2022-12-27T13:49:02.117Z,7.1
2022-12-27T13:50:02.057Z,6.9
2022-12-27T13:51:02.019Z,6.8
2022-12-27T13:52:01.964Z,6.9
2022-12-27T13:53:01.871Z,6.9
2022-12-27T13:54:01.744Z,6.8
2022-12-27T13:55:01.644Z,6.6